sensor_id;sensor_type;location;lat;lon;timestamp;P1;durP1;ratioP1;P2;durP2;ratioP2
22421;SDS011;11378;51.642;7.668;2022-09-09T00:00:18;1.67;;;0.70;;
22421;SDS011;11378;51.642;7.668;2022-09-09T00:02:54;1.05;;;0.60;;
22421;SDS011;11378;51.642;7.668;2022-09-09T00:07:52;0.75;;;0.43;;
22421;SDS011;11378;51.642;7.668;2022-09-09T00:10:28;1.13;;;0.60;;
22421;SDS011;11378;51.642;7.668;2022-09-09T00:15:40;0.93;;;0.40;;
22421;SDS011;11378;51.642;7.668;2022-09-09T00:20:55;1.55;;;0.57;;
22421;SDS011;11378;51.642;7.668;2022-09-09T00:23:34;0.60;;;0.47;;
22421;SDS011;11378;51.642;7.668;2022-09-09T00:28:28;0.65;;;0.50;;
22421;SDS011;11378;51.642;7.668;2022-09-09T00:31:04;0.85;;;0.47;;
22421;SDS011;11378;51.642;7.668;2022-09-09T00:33:34;2.13;;;0.68;;
22421;SDS011;11378;51.642;7.668;2022-09-09T00:36:01;1.67;;;0.43;;
22421;SDS011;11378;51.642;7.668;2022-09-09T00:38:31;0.63;;;0.40;;
22421;SDS011;11378;51.642;7.668;2022-09-09T00:41:11;1.55;;;0.43;;
22421;SDS011;11378;51.642;7.668;2022-09-09T00:43:39;1.00;;;0.40;;
22421;SDS011;11378;51.642;7.668;2022-09-09T00:56:36;1.75;;;0.50;;
22421;SDS011;11378;51.642;7.668;2022-09-09T01:01:36;0.98;;;0.70;;
22421;SDS011;11378;51.642;7.668;2022-09-09T01:04:05;1.95;;;0.50;;
22421;SDS011;11378;51.642;7.668;2022-09-09T01:06:35;0.82;;;0.55;;
22421;SDS011;11378;51.642;7.668;2022-09-09T01:09:11;0.70;;;0.52;;
22421;SDS011;11378;51.642;7.668;2022-09-09T01:14:19;0.82;;;0.40;;
22421;SDS011;11378;51.642;7.668;2022-09-09T01:16:46;0.63;;;0.43;;
22421;SDS011;11378;51.642;7.668;2022-09-09T01:19:19;0.73;;;0.50;;
22421;SDS011;11378;51.642;7.668;2022-09-09T01:21:54;1.13;;;0.43;;
22421;SDS011;11378;51.642;7.668;2022-09-09T01:24:26;1.52;;;0.25;;
22421;SDS011;11378;51.642;7.668;2022-09-09T01:27:18;1.30;;;0.40;;
22421;SDS011;11378;51.642;7.668;2022-09-09T01:29:45;1.80;;;0.50;;
22421;SDS011;11378;51.642;7.668;2022-09-09T01:34:58;0.77;;;0.40;;
22421;SDS011;11378;51.642;7.668;2022-09-09T01:37:25;0.32;;;0.32;;
22421;SDS011;11378;51.642;7.668;2022-09-09T01:39:51;1.05;;;0.40;;
22421;SDS011;11378;51.642;7.668;2022-09-09T01:42:18;0.52;;;0.50;;
22421;SDS011;11378;51.642;7.668;2022-09-09T01:44:45;1.02;;;0.40;;
22421;SDS011;11378;51.642;7.668;2022-09-09T01:47:11;1.02;;;0.50;;
22421;SDS011;11378;51.642;7.668;2022-09-09T01:50:04;1.10;;;0.40;;
22421;SDS011;11378;51.642;7.668;2022-09-09T01:52:31;1.67;;;0.50;;
22421;SDS011;11378;51.642;7.668;2022-09-09T01:54:59;1.00;;;0.40;;
22421;SDS011;11378;51.642;7.668;2022-09-09T01:57:33;0.82;;;0.40;;
22421;SDS011;11378;51.642;7.668;2022-09-09T02:02:44;0.82;;;0.50;;
22421;SDS011;11378;51.642;7.668;2022-09-09T02:08:07;0.80;;;0.40;;
22421;SDS011;11378;51.642;7.668;2022-09-09T02:10:55;0.80;;;0.32;;
22421;SDS011;11378;51.642;7.668;2022-09-09T02:13:35;1.38;;;0.43;;
22421;SDS011;11378;51.642;7.668;2022-09-09T02:18:31;1.27;;;0.50;;
22421;SDS011;11378;51.642;7.668;2022-09-09T02:20:59;0.60;;;0.40;;
22421;SDS011;11378;51.642;7.668;2022-09-09T02:23:25;0.47;;;0.47;;
22421;SDS011;11378;51.642;7.668;2022-09-09T02:25:53;0.52;;;0.40;;
22421;SDS011;11378;51.642;7.668;2022-09-09T02:28:23;0.45;;;0.45;;
22421;SDS011;11378;51.642;7.668;2022-09-09T02:30:51;0.80;;;0.40;;
22421;SDS011;11378;51.642;7.668;2022-09-09T02:33:30;1.02;;;0.73;;
22421;SDS011;11378;51.642;7.668;2022-09-09T02:35:59;2.25;;;0.40;;
22421;SDS011;11378;51.642;7.668;2022-09-09T02:38:32;1.50;;;0.45;;
22421;SDS011;11378;51.642;7.668;2022-09-09T02:41:07;0.82;;;0.45;;
22421;SDS011;11378;51.642;7.668;2022-09-09T02:43:34;0.73;;;0.60;;
22421;SDS011;11378;51.642;7.668;2022-09-09T02:46:20;0.45;;;0.30;;
22421;SDS011;11378;51.642;7.668;2022-09-09T02:48:54;0.38;;;0.38;;
22421;SDS011;11378;51.642;7.668;2022-09-09T02:56:23;0.60;;;0.40;;
22421;SDS011;11378;51.642;7.668;2022-09-09T02:58:54;0.40;;;0.30;;
22421;SDS011;11378;51.642;7.668;2022-09-09T03:01:21;0.90;;;0.50;;
22421;SDS011;11378;51.642;7.668;2022-09-09T03:03:47;0.45;;;0.40;;
22421;SDS011;11378;51.642;7.668;2022-09-09T03:06:15;0.90;;;0.45;;
22421;SDS011;11378;51.642;7.668;2022-09-09T03:08:45;1.52;;;0.35;;
22421;SDS011;11378;51.642;7.668;2022-09-09T03:11:11;2.15;;;0.60;;
22421;SDS011;11378;51.642;7.668;2022-09-09T03:13:40;0.65;;;0.40;;
22421;SDS011;11378;51.642;7.668;2022-09-09T03:16:07;0.30;;;0.30;;
22421;SDS011;11378;51.642;7.668;2022-09-09T03:18:39;1.10;;;0.50;;
22421;SDS011;11378;51.642;7.668;2022-09-09T03:21:05;0.40;;;0.40;;
22421;SDS011;11378;51.642;7.668;2022-09-09T03:23:32;0.38;;;0.30;;
22421;SDS011;11378;51.642;7.668;2022-09-09T03:26:01;0.85;;;0.30;;
22421;SDS011;11378;51.642;7.668;2022-09-09T03:28:38;0.93;;;0.68;;
22421;SDS011;11378;51.642;7.668;2022-09-09T03:31:05;0.60;;;0.40;;
22421;SDS011;11378;51.642;7.668;2022-09-09T03:33:39;0.43;;;0.43;;
22421;SDS011;11378;51.642;7.668;2022-09-09T03:36:09;0.25;;;0.25;;
22421;SDS011;11378;51.642;7.668;2022-09-09T03:38:36;2.50;;;0.50;;
22421;SDS011;11378;51.642;7.668;2022-09-09T03:41:03;1.23;;;0.50;;
22421;SDS011;11378;51.642;7.668;2022-09-09T03:46:01;1.95;;;0.47;;
22421;SDS011;11378;51.642;7.668;2022-09-09T03:48:28;0.60;;;0.40;;
22421;SDS011;11378;51.642;7.668;2022-09-09T03:50:55;1.27;;;0.40;;
22421;SDS011;11378;51.642;7.668;2022-09-09T03:53:24;0.70;;;0.30;;
22421;SDS011;11378;51.642;7.668;2022-09-09T03:55:51;0.75;;;0.35;;
22421;SDS011;11378;51.642;7.668;2022-09-09T03:58:22;1.30;;;0.50;;
22421;SDS011;11378;51.642;7.668;2022-09-09T04:03:21;1.17;;;0.40;;
22421;SDS011;11378;51.642;7.668;2022-09-09T04:05:53;0.77;;;0.50;;
22421;SDS011;11378;51.642;7.668;2022-09-09T04:08:20;0.75;;;0.50;;
22421;SDS011;11378;51.642;7.668;2022-09-09T04:10:48;1.10;;;0.40;;
22421;SDS011;11378;51.642;7.668;2022-09-09T04:13:16;0.73;;;0.40;;
22421;SDS011;11378;51.642;7.668;2022-09-09T04:15:44;1.10;;;0.40;;
22421;SDS011;11378;51.642;7.668;2022-09-09T04:18:16;0.60;;;0.40;;
22421;SDS011;11378;51.642;7.668;2022-09-09T04:20:42;0.77;;;0.40;;
22421;SDS011;11378;51.642;7.668;2022-09-09T04:23:08;1.90;;;0.43;;
22421;SDS011;11378;51.642;7.668;2022-09-09T04:25:35;2.05;;;0.60;;
22421;SDS011;11378;51.642;7.668;2022-09-09T04:28:01;0.65;;;0.35;;
22421;SDS011;11378;51.642;7.668;2022-09-09T04:30:28;0.80;;;0.50;;
22421;SDS011;11378;51.642;7.668;2022-09-09T04:32:54;0.60;;;0.43;;
22421;SDS011;11378;51.642;7.668;2022-09-09T04:35:22;1.15;;;0.40;;
22421;SDS011;11378;51.642;7.668;2022-09-09T04:37:49;2.08;;;0.60;;
22421;SDS011;11378;51.642;7.668;2022-09-09T04:40:15;1.23;;;0.40;;
22421;SDS011;11378;51.642;7.668;2022-09-09T04:42:42;0.70;;;0.38;;
22421;SDS011;11378;51.642;7.668;2022-09-09T04:45:09;0.65;;;0.40;;
22421;SDS011;11378;51.642;7.668;2022-09-09T04:47:36;1.08;;;0.50;;
22421;SDS011;11378;51.642;7.668;2022-09-09T04:50:03;0.88;;;0.52;;
22421;SDS011;11378;51.642;7.668;2022-09-09T04:52:30;0.52;;;0.38;;
22421;SDS011;11378;51.642;7.668;2022-09-09T04:54:57;0.63;;;0.40;;
22421;SDS011;11378;51.642;7.668;2022-09-09T04:57:23;1.17;;;0.47;;
22421;SDS011;11378;51.642;7.668;2022-09-09T04:59:50;1.00;;;0.40;;
22421;SDS011;11378;51.642;7.668;2022-09-09T05:02:16;0.50;;;0.50;;
22421;SDS011;11378;51.642;7.668;2022-09-09T05:04:42;1.08;;;0.50;;
22421;SDS011;11378;51.642;7.668;2022-09-09T05:07:09;1.20;;;0.40;;
22421;SDS011;11378;51.642;7.668;2022-09-09T05:09:35;0.47;;;0.40;;
22421;SDS011;11378;51.642;7.668;2022-09-09T05:12:01;2.03;;;0.47;;
22421;SDS011;11378;51.642;7.668;2022-09-09T05:14:31;0.40;;;0.32;;
22421;SDS011;11378;51.642;7.668;2022-09-09T05:16:59;2.47;;;0.40;;
22421;SDS011;11378;51.642;7.668;2022-09-09T05:19:26;2.33;;;0.43;;
22421;SDS011;11378;51.642;7.668;2022-09-09T05:21:53;1.05;;;0.40;;
22421;SDS011;11378;51.642;7.668;2022-09-09T05:24:25;1.73;;;0.52;;
22421;SDS011;11378;51.642;7.668;2022-09-09T05:26:54;1.67;;;0.40;;
22421;SDS011;11378;51.642;7.668;2022-09-09T05:29:23;1.63;;;0.50;;
22421;SDS011;11378;51.642;7.668;2022-09-09T05:31:49;2.22;;;0.40;;
22421;SDS011;11378;51.642;7.668;2022-09-09T05:34:19;1.05;;;0.40;;
22421;SDS011;11378;51.642;7.668;2022-09-09T05:36:46;2.38;;;0.80;;
22421;SDS011;11378;51.642;7.668;2022-09-09T05:39:13;1.27;;;0.50;;
22421;SDS011;11378;51.642;7.668;2022-09-09T05:41:40;3.25;;;0.60;;
22421;SDS011;11378;51.642;7.668;2022-09-09T05:44:07;2.67;;;0.70;;
22421;SDS011;11378;51.642;7.668;2022-09-09T05:46:37;2.13;;;0.60;;
22421;SDS011;11378;51.642;7.668;2022-09-09T05:49:04;1.98;;;0.80;;
22421;SDS011;11378;51.642;7.668;2022-09-09T05:51:32;2.72;;;0.70;;
22421;SDS011;11378;51.642;7.668;2022-09-09T05:54:04;2.33;;;0.60;;
22421;SDS011;11378;51.642;7.668;2022-09-09T05:59:00;1.40;;;0.63;;
22421;SDS011;11378;51.642;7.668;2022-09-09T06:01:31;1.52;;;0.43;;
22421;SDS011;11378;51.642;7.668;2022-09-09T06:03:58;1.08;;;0.40;;
22421;SDS011;11378;51.642;7.668;2022-09-09T06:06:25;1.90;;;0.50;;
22421;SDS011;11378;51.642;7.668;2022-09-09T06:08:55;2.88;;;0.93;;
22421;SDS011;11378;51.642;7.668;2022-09-09T06:11:26;0.93;;;0.50;;
22421;SDS011;11378;51.642;7.668;2022-09-09T06:13:52;3.20;;;0.50;;
22421;SDS011;11378;51.642;7.668;2022-09-09T06:16:21;1.58;;;0.70;;
22421;SDS011;11378;51.642;7.668;2022-09-09T06:18:52;2.22;;;0.70;;
22421;SDS011;11378;51.642;7.668;2022-09-09T06:21:21;1.20;;;0.50;;
22421;SDS011;11378;51.642;7.668;2022-09-09T06:23:47;3.00;;;0.80;;
22421;SDS011;11378;51.642;7.668;2022-09-09T06:26:18;1.70;;;0.43;;
22421;SDS011;11378;51.642;7.668;2022-09-09T06:28:46;0.93;;;0.40;;
22421;SDS011;11378;51.642;7.668;2022-09-09T06:31:14;0.57;;;0.40;;
22421;SDS011;11378;51.642;7.668;2022-09-09T06:33:43;2.65;;;0.60;;
22421;SDS011;11378;51.642;7.668;2022-09-09T06:36:12;1.17;;;0.50;;
22421;SDS011;11378;51.642;7.668;2022-09-09T06:38:40;2.25;;;0.70;;
22421;SDS011;11378;51.642;7.668;2022-09-09T06:41:09;0.98;;;0.50;;
22421;SDS011;11378;51.642;7.668;2022-09-09T06:43:37;0.52;;;0.43;;
22421;SDS011;11378;51.642;7.668;2022-09-09T06:46:10;2.25;;;0.63;;
22421;SDS011;11378;51.642;7.668;2022-09-09T06:48:38;1.13;;;0.52;;
22421;SDS011;11378;51.642;7.668;2022-09-09T06:51:19;1.10;;;0.50;;
22421;SDS011;11378;51.642;7.668;2022-09-09T06:53:52;1.55;;;0.50;;
22421;SDS011;11378;51.642;7.668;2022-09-09T06:58:49;1.92;;;0.70;;
22421;SDS011;11378;51.642;7.668;2022-09-09T07:01:23;2.00;;;0.50;;
22421;SDS011;11378;51.642;7.668;2022-09-09T07:03:51;0.80;;;0.50;;
22421;SDS011;11378;51.642;7.668;2022-09-09T07:06:19;3.22;;;0.70;;
22421;SDS011;11378;51.642;7.668;2022-09-09T07:08:49;2.83;;;0.50;;
22421;SDS011;11378;51.642;7.668;2022-09-09T07:11:16;2.00;;;0.40;;
22421;SDS011;11378;51.642;7.668;2022-09-09T07:13:42;2.53;;;0.60;;
22421;SDS011;11378;51.642;7.668;2022-09-09T07:16:10;1.50;;;0.60;;
22421;SDS011;11378;51.642;7.668;2022-09-09T07:18:36;1.95;;;0.50;;
22421;SDS011;11378;51.642;7.668;2022-09-09T07:21:03;1.70;;;0.60;;
22421;SDS011;11378;51.642;7.668;2022-09-09T07:23:30;1.50;;;0.57;;
22421;SDS011;11378;51.642;7.668;2022-09-09T07:25:57;2.03;;;0.70;;
22421;SDS011;11378;51.642;7.668;2022-09-09T07:28:24;1.90;;;0.60;;
22421;SDS011;11378;51.642;7.668;2022-09-09T07:33:21;2.03;;;0.65;;
22421;SDS011;11378;51.642;7.668;2022-09-09T07:35:47;2.30;;;0.60;;
22421;SDS011;11378;51.642;7.668;2022-09-09T07:38:14;0.68;;;0.60;;
22421;SDS011;11378;51.642;7.668;2022-09-09T07:40:42;1.42;;;0.52;;
22421;SDS011;11378;51.642;7.668;2022-09-09T07:43:09;1.77;;;0.77;;
22421;SDS011;11378;51.642;7.668;2022-09-09T07:45:36;1.15;;;0.50;;
22421;SDS011;11378;51.642;7.668;2022-09-09T07:48:02;1.45;;;0.57;;
22421;SDS011;11378;51.642;7.668;2022-09-09T07:50:30;3.92;;;0.80;;
22421;SDS011;11378;51.642;7.668;2022-09-09T07:52:57;3.40;;;1.05;;
22421;SDS011;11378;51.642;7.668;2022-09-09T07:55:24;10.23;;;1.00;;
22421;SDS011;11378;51.642;7.668;2022-09-09T07:57:52;3.47;;;0.63;;
22421;SDS011;11378;51.642;7.668;2022-09-09T08:00:19;6.05;;;0.75;;
22421;SDS011;11378;51.642;7.668;2022-09-09T08:02:52;9.93;;;0.80;;
22421;SDS011;11378;51.642;7.668;2022-09-09T08:05:19;7.65;;;0.98;;
22421;SDS011;11378;51.642;7.668;2022-09-09T08:07:48;3.85;;;0.60;;
22421;SDS011;11378;51.642;7.668;2022-09-09T08:10:14;4.50;;;0.85;;
22421;SDS011;11378;51.642;7.668;2022-09-09T08:12:43;8.73;;;1.45;;
22421;SDS011;11378;51.642;7.668;2022-09-09T08:15:09;10.85;;;1.08;;
22421;SDS011;11378;51.642;7.668;2022-09-09T08:17:36;9.00;;;0.90;;
22421;SDS011;11378;51.642;7.668;2022-09-09T08:20:05;12.15;;;1.30;;
22421;SDS011;11378;51.642;7.668;2022-09-09T08:22:33;10.80;;;0.95;;
22421;SDS011;11378;51.642;7.668;2022-09-09T08:24:59;6.40;;;0.77;;
22421;SDS011;11378;51.642;7.668;2022-09-09T08:27:27;3.75;;;0.65;;
22421;SDS011;11378;51.642;7.668;2022-09-09T08:29:54;6.93;;;0.70;;
22421;SDS011;11378;51.642;7.668;2022-09-09T08:32:22;3.53;;;0.90;;
22421;SDS011;11378;51.642;7.668;2022-09-09T08:34:48;7.97;;;0.55;;
22421;SDS011;11378;51.642;7.668;2022-09-09T08:37:20;5.25;;;0.80;;
22421;SDS011;11378;51.642;7.668;2022-09-09T08:39:47;12.10;;;1.25;;
22421;SDS011;11378;51.642;7.668;2022-09-09T09:06:01;3.30;;;0.68;;
22421;SDS011;11378;51.642;7.668;2022-09-09T09:08:46;3.75;;;0.60;;
22421;SDS011;11378;51.642;7.668;2022-09-09T09:11:15;2.72;;;0.75;;
22421;SDS011;11378;51.642;7.668;2022-09-09T09:16:17;0.82;;;0.35;;
22421;SDS011;11378;51.642;7.668;2022-09-09T09:18:46;1.17;;;0.40;;
22421;SDS011;11378;51.642;7.668;2022-09-09T09:21:16;1.42;;;0.50;;
22421;SDS011;11378;51.642;7.668;2022-09-09T09:23:57;2.08;;;0.60;;
22421;SDS011;11378;51.642;7.668;2022-09-09T09:26:34;0.98;;;0.50;;
22421;SDS011;11378;51.642;7.668;2022-09-09T09:29:12;3.08;;;0.75;;
22421;SDS011;11378;51.642;7.668;2022-09-09T09:31:48;3.42;;;0.50;;
22421;SDS011;11378;51.642;7.668;2022-09-09T09:34:16;4.78;;;1.35;;
22421;SDS011;11378;51.642;7.668;2022-09-09T09:36:45;5.70;;;1.02;;
22421;SDS011;11378;51.642;7.668;2022-09-09T09:39:25;1.50;;;0.77;;
22421;SDS011;11378;51.642;7.668;2022-09-09T09:41:54;4.25;;;0.90;;
22421;SDS011;11378;51.642;7.668;2022-09-09T09:44:22;5.57;;;0.88;;
22421;SDS011;11378;51.642;7.668;2022-09-09T09:46:50;3.00;;;0.90;;
22421;SDS011;11378;51.642;7.668;2022-09-09T09:49:16;2.30;;;0.90;;
22421;SDS011;11378;51.642;7.668;2022-09-09T09:51:43;2.30;;;0.68;;
22421;SDS011;11378;51.642;7.668;2022-09-09T09:56:44;2.22;;;0.75;;
22421;SDS011;11378;51.642;7.668;2022-09-09T10:02:05;8.05;;;0.95;;
22421;SDS011;11378;51.642;7.668;2022-09-09T10:04:34;1.90;;;0.77;;
22421;SDS011;11378;51.642;7.668;2022-09-09T10:07:09;2.30;;;0.52;;
22421;SDS011;11378;51.642;7.668;2022-09-09T10:09:36;4.88;;;1.05;;
22421;SDS011;11378;51.642;7.668;2022-09-09T10:19:58;1.52;;;0.65;;
22421;SDS011;11378;51.642;7.668;2022-09-09T10:22:27;1.92;;;0.70;;
22421;SDS011;11378;51.642;7.668;2022-09-09T10:30:16;1.85;;;0.73;;
22421;SDS011;11378;51.642;7.668;2022-09-09T10:40:42;2.55;;;0.70;;
22421;SDS011;11378;51.642;7.668;2022-09-09T10:45:41;0.95;;;0.50;;
22421;SDS011;11378;51.642;7.668;2022-09-09T10:48:26;3.42;;;0.95;;
22421;SDS011;11378;51.642;7.668;2022-09-09T10:55:56;1.65;;;0.50;;
22421;SDS011;11378;51.642;7.668;2022-09-09T10:58:34;1.15;;;0.50;;
22421;SDS011;11378;51.642;7.668;2022-09-09T11:01:08;1.90;;;0.60;;
22421;SDS011;11378;51.642;7.668;2022-09-09T11:03:36;2.20;;;0.85;;
22421;SDS011;11378;51.642;7.668;2022-09-09T11:06:06;2.78;;;0.68;;
22421;SDS011;11378;51.642;7.668;2022-09-09T11:08:36;5.25;;;0.88;;
22421;SDS011;11378;51.642;7.668;2022-09-09T11:11:21;3.13;;;0.73;;
22421;SDS011;11378;51.642;7.668;2022-09-09T11:16:25;6.30;;;0.93;;
22421;SDS011;11378;51.642;7.668;2022-09-09T11:18:55;3.80;;;0.77;;
22421;SDS011;11378;51.642;7.668;2022-09-09T11:21:26;2.90;;;0.70;;
22421;SDS011;11378;51.642;7.668;2022-09-09T11:23:56;5.40;;;0.80;;
22421;SDS011;11378;51.642;7.668;2022-09-09T11:26:33;2.40;;;0.70;;
22421;SDS011;11378;51.642;7.668;2022-09-09T11:30:04;3.75;;;0.70;;
22421;SDS011;11378;51.642;7.668;2022-09-09T11:35:02;3.28;;;0.70;;
22421;SDS011;11378;51.642;7.668;2022-09-09T11:37:40;1.77;;;0.70;;
22421;SDS011;11378;51.642;7.668;2022-09-09T11:40:25;1.90;;;0.70;;
22421;SDS011;11378;51.642;7.668;2022-09-09T11:45:51;1.35;;;0.55;;
22421;SDS011;11378;51.642;7.668;2022-09-09T11:48:32;2.25;;;0.60;;
22421;SDS011;11378;51.642;7.668;2022-09-09T11:51:09;2.28;;;0.80;;
22421;SDS011;11378;51.642;7.668;2022-09-09T11:53:50;0.82;;;0.50;;
22421;SDS011;11378;51.642;7.668;2022-09-09T12:01:36;2.08;;;0.80;;
22421;SDS011;11378;51.642;7.668;2022-09-09T12:06:32;1.77;;;0.70;;
22421;SDS011;11378;51.642;7.668;2022-09-09T12:09:08;1.15;;;0.50;;
22421;SDS011;11378;51.642;7.668;2022-09-09T12:11:36;2.05;;;0.60;;
22421;SDS011;11378;51.642;7.668;2022-09-09T12:14:02;2.05;;;0.55;;
22421;SDS011;11378;51.642;7.668;2022-09-09T12:16:30;1.98;;;0.68;;
22421;SDS011;11378;51.642;7.668;2022-09-09T12:19:05;2.63;;;0.52;;
22421;SDS011;11378;51.642;7.668;2022-09-09T12:24:09;2.22;;;0.57;;
22421;SDS011;11378;51.642;7.668;2022-09-09T12:32:22;1.83;;;0.50;;
22421;SDS011;11378;51.642;7.668;2022-09-09T12:37:38;1.77;;;0.65;;
22421;SDS011;11378;51.642;7.668;2022-09-09T12:40:23;1.45;;;0.70;;
22421;SDS011;11378;51.642;7.668;2022-09-09T12:42:50;2.90;;;0.40;;
22421;SDS011;11378;51.642;7.668;2022-09-09T12:45:21;1.92;;;0.60;;
22421;SDS011;11378;51.642;7.668;2022-09-09T12:48:10;2.33;;;0.73;;
22421;SDS011;11378;51.642;7.668;2022-09-09T12:50:48;1.30;;;0.50;;
22421;SDS011;11378;51.642;7.668;2022-09-09T12:53:19;0.65;;;0.50;;
22421;SDS011;11378;51.642;7.668;2022-09-09T12:56:06;1.70;;;0.60;;
22421;SDS011;11378;51.642;7.668;2022-09-09T12:58:33;1.40;;;0.50;;
22421;SDS011;11378;51.642;7.668;2022-09-09T13:01:00;0.70;;;0.50;;
22421;SDS011;11378;51.642;7.668;2022-09-09T13:03:30;1.67;;;0.40;;
22421;SDS011;11378;51.642;7.668;2022-09-09T13:06:10;1.13;;;0.45;;
22421;SDS011;11378;51.642;7.668;2022-09-09T13:08:37;1.85;;;0.60;;
22421;SDS011;11378;51.642;7.668;2022-09-09T13:11:06;1.13;;;0.75;;
22421;SDS011;11378;51.642;7.668;2022-09-09T13:13:36;0.65;;;0.52;;
22421;SDS011;11378;51.642;7.668;2022-09-09T13:16:04;1.40;;;0.55;;
22421;SDS011;11378;51.642;7.668;2022-09-09T13:18:34;0.45;;;0.30;;
22421;SDS011;11378;51.642;7.668;2022-09-09T13:21:01;1.27;;;0.45;;
22421;SDS011;11378;51.642;7.668;2022-09-09T13:23:29;0.55;;;0.52;;
22421;SDS011;11378;51.642;7.668;2022-09-09T13:25:57;2.25;;;0.70;;
22421;SDS011;11378;51.642;7.668;2022-09-09T13:28:27;1.17;;;0.50;;
22421;SDS011;11378;51.642;7.668;2022-09-09T13:30:58;1.02;;;0.40;;
22421;SDS011;11378;51.642;7.668;2022-09-09T13:33:29;0.52;;;0.50;;
22421;SDS011;11378;51.642;7.668;2022-09-09T13:35:57;0.43;;;0.40;;
22421;SDS011;11378;51.642;7.668;2022-09-09T13:38:24;1.35;;;0.50;;
22421;SDS011;11378;51.642;7.668;2022-09-09T13:40:55;1.38;;;0.63;;
22421;SDS011;11378;51.642;7.668;2022-09-09T13:43:23;2.45;;;0.40;;
22421;SDS011;11378;51.642;7.668;2022-09-09T13:45:54;0.63;;;0.50;;
22421;SDS011;11378;51.642;7.668;2022-09-09T13:48:21;1.13;;;0.40;;
22421;SDS011;11378;51.642;7.668;2022-09-09T13:50:55;2.42;;;0.60;;
22421;SDS011;11378;51.642;7.668;2022-09-09T13:53:21;0.95;;;0.50;;
22421;SDS011;11378;51.642;7.668;2022-09-09T13:55:47;1.10;;;0.50;;
22421;SDS011;11378;51.642;7.668;2022-09-09T13:58:14;0.57;;;0.50;;
22421;SDS011;11378;51.642;7.668;2022-09-09T14:00:41;2.10;;;0.60;;
22421;SDS011;11378;51.642;7.668;2022-09-09T14:03:09;1.95;;;0.47;;
22421;SDS011;11378;51.642;7.668;2022-09-09T14:05:35;0.80;;;0.50;;
22421;SDS011;11378;51.642;7.668;2022-09-09T14:08:03;0.75;;;0.50;;
22421;SDS011;11378;51.642;7.668;2022-09-09T14:10:29;0.50;;;0.50;;
22421;SDS011;11378;51.642;7.668;2022-09-09T14:12:56;0.73;;;0.30;;
22421;SDS011;11378;51.642;7.668;2022-09-09T14:15:22;0.82;;;0.50;;
22421;SDS011;11378;51.642;7.668;2022-09-09T14:17:49;2.05;;;0.60;;
22421;SDS011;11378;51.642;7.668;2022-09-09T14:20:15;0.90;;;0.50;;
22421;SDS011;11378;51.642;7.668;2022-09-09T14:22:42;0.95;;;0.45;;
22421;SDS011;11378;51.642;7.668;2022-09-09T14:25:09;1.40;;;0.55;;
22421;SDS011;11378;51.642;7.668;2022-09-09T14:27:36;1.20;;;0.60;;
22421;SDS011;11378;51.642;7.668;2022-09-09T14:30:05;1.20;;;0.65;;
22421;SDS011;11378;51.642;7.668;2022-09-09T14:32:31;3.92;;;0.65;;
22421;SDS011;11378;51.642;7.668;2022-09-09T14:34:58;2.10;;;0.60;;
22421;SDS011;11378;51.642;7.668;2022-09-09T14:37:24;5.00;;;0.80;;
22421;SDS011;11378;51.642;7.668;2022-09-09T14:39:51;4.55;;;0.85;;
22421;SDS011;11378;51.642;7.668;2022-09-09T14:42:19;4.07;;;1.00;;
22421;SDS011;11378;51.642;7.668;2022-09-09T14:44:45;3.85;;;0.93;;
22421;SDS011;11378;51.642;7.668;2022-09-09T14:47:12;2.85;;;0.70;;
22421;SDS011;11378;51.642;7.668;2022-09-09T14:49:39;4.28;;;1.00;;
22421;SDS011;11378;51.642;7.668;2022-09-09T14:52:05;5.97;;;1.20;;
22421;SDS011;11378;51.642;7.668;2022-09-09T14:54:31;1.88;;;0.70;;
22421;SDS011;11378;51.642;7.668;2022-09-09T14:56:57;2.45;;;0.93;;
22421;SDS011;11378;51.642;7.668;2022-09-09T14:59:24;4.32;;;1.13;;
22421;SDS011;11378;51.642;7.668;2022-09-09T15:01:50;2.80;;;0.73;;
22421;SDS011;11378;51.642;7.668;2022-09-09T15:04:16;2.85;;;0.80;;
22421;SDS011;11378;51.642;7.668;2022-09-09T15:06:43;3.83;;;1.10;;
22421;SDS011;11378;51.642;7.668;2022-09-09T15:11:39;2.17;;;0.57;;
22421;SDS011;11378;51.642;7.668;2022-09-09T15:14:06;3.53;;;1.20;;
22421;SDS011;11378;51.642;7.668;2022-09-09T15:16:32;2.70;;;1.00;;
22421;SDS011;11378;51.642;7.668;2022-09-09T15:18:59;1.63;;;0.90;;
22421;SDS011;11378;51.642;7.668;2022-09-09T15:21:27;3.70;;;0.68;;
22421;SDS011;11378;51.642;7.668;2022-09-09T15:23:53;2.72;;;1.00;;
22421;SDS011;11378;51.642;7.668;2022-09-09T15:26:20;2.30;;;1.10;;
22421;SDS011;11378;51.642;7.668;2022-09-09T15:28:46;1.67;;;0.85;;
22421;SDS011;11378;51.642;7.668;2022-09-09T15:31:18;2.28;;;0.80;;
22421;SDS011;11378;51.642;7.668;2022-09-09T15:36:24;3.05;;;0.98;;
22421;SDS011;11378;51.642;7.668;2022-09-09T15:38:51;2.50;;;0.82;;
22421;SDS011;11378;51.642;7.668;2022-09-09T15:41:18;3.03;;;0.95;;
22421;SDS011;11378;51.642;7.668;2022-09-09T15:43:45;3.65;;;0.80;;
22421;SDS011;11378;51.642;7.668;2022-09-09T15:48:56;1.88;;;0.40;;
22421;SDS011;11378;51.642;7.668;2022-09-09T15:51:23;1.23;;;0.68;;
22421;SDS011;11378;51.642;7.668;2022-09-09T15:53:53;1.67;;;0.45;;
22421;SDS011;11378;51.642;7.668;2022-09-09T15:56:20;2.70;;;0.60;;
22421;SDS011;11378;51.642;7.668;2022-09-09T15:58:46;2.15;;;0.50;;
22421;SDS011;11378;51.642;7.668;2022-09-09T16:01:12;1.13;;;0.47;;
22421;SDS011;11378;51.642;7.668;2022-09-09T16:03:39;2.22;;;0.65;;
22421;SDS011;11378;51.642;7.668;2022-09-09T16:06:12;1.33;;;0.65;;
22421;SDS011;11378;51.642;7.668;2022-09-09T16:08:39;1.30;;;0.60;;
22421;SDS011;11378;51.642;7.668;2022-09-09T16:11:08;1.60;;;0.60;;
22421;SDS011;11378;51.642;7.668;2022-09-09T16:13:36;1.23;;;0.60;;
22421;SDS011;11378;51.642;7.668;2022-09-09T16:16:04;1.80;;;0.70;;
22421;SDS011;11378;51.642;7.668;2022-09-09T16:18:38;2.00;;;0.70;;
22421;SDS011;11378;51.642;7.668;2022-09-09T16:21:05;3.65;;;0.80;;
22421;SDS011;11378;51.642;7.668;2022-09-09T16:23:33;4.72;;;0.50;;
22421;SDS011;11378;51.642;7.668;2022-09-09T16:26:00;3.50;;;0.52;;
22421;SDS011;11378;51.642;7.668;2022-09-09T16:28:28;6.70;;;0.95;;
22421;SDS011;11378;51.642;7.668;2022-09-09T16:30:54;7.97;;;0.77;;
22421;SDS011;11378;51.642;7.668;2022-09-09T16:33:20;5.97;;;0.70;;
22421;SDS011;11378;51.642;7.668;2022-09-09T16:35:47;5.88;;;0.50;;
22421;SDS011;11378;51.642;7.668;2022-09-09T16:38:14;7.13;;;0.70;;
22421;SDS011;11378;51.642;7.668;2022-09-09T16:40:40;9.23;;;0.60;;
22421;SDS011;11378;51.642;7.668;2022-09-09T16:43:07;5.75;;;0.60;;
22421;SDS011;11378;51.642;7.668;2022-09-09T16:45:43;1.75;;;0.80;;
22421;SDS011;11378;51.642;7.668;2022-09-09T16:48:10;1.00;;;0.50;;
22421;SDS011;11378;51.642;7.668;2022-09-09T16:50:36;1.25;;;0.73;;
22421;SDS011;11378;51.642;7.668;2022-09-09T16:53:03;2.30;;;0.50;;
22421;SDS011;11378;51.642;7.668;2022-09-09T16:55:37;2.85;;;0.45;;
22421;SDS011;11378;51.642;7.668;2022-09-09T16:58:03;4.13;;;0.60;;
22421;SDS011;11378;51.642;7.668;2022-09-09T17:00:29;1.40;;;0.60;;
22421;SDS011;11378;51.642;7.668;2022-09-09T17:02:56;1.50;;;0.43;;
22421;SDS011;11378;51.642;7.668;2022-09-09T17:05:22;0.73;;;0.40;;
22421;SDS011;11378;51.642;7.668;2022-09-09T17:07:48;0.47;;;0.40;;
22421;SDS011;11378;51.642;7.668;2022-09-09T17:10:14;0.63;;;0.30;;
22421;SDS011;11378;51.642;7.668;2022-09-09T17:12:40;1.17;;;0.47;;
22421;SDS011;11378;51.642;7.668;2022-09-09T17:15:06;2.33;;;0.63;;
22421;SDS011;11378;51.642;7.668;2022-09-09T17:17:33;1.02;;;0.47;;
22421;SDS011;11378;51.642;7.668;2022-09-09T17:19:59;0.93;;;0.60;;
22421;SDS011;11378;51.642;7.668;2022-09-09T17:22:27;2.50;;;0.50;;
22421;SDS011;11378;51.642;7.668;2022-09-09T17:24:54;1.50;;;0.47;;
22421;SDS011;11378;51.642;7.668;2022-09-09T17:27:20;2.53;;;0.60;;
22421;SDS011;11378;51.642;7.668;2022-09-09T17:29:46;1.05;;;0.40;;